createdAt,value
2022-07-25T00:00:45.760Z,64.43
2022-07-25T00:03:13.727Z,64.52
2022-07-25T00:05:47.416Z,64.92
2022-07-25T00:08:15.708Z,64.84
2022-07-25T00:10:43.591Z,64.77
2022-07-25T00:13:10.336Z,63.61
2022-07-25T00:15:37.090Z,63.75
2022-07-25T00:18:03.821Z,64.00
2022-07-25T00:20:30.745Z,63.86
2022-07-25T00:22:57.463Z,64.36
2022-07-25T00:25:25.647Z,63.94
2022-07-25T00:27:52.442Z,64.32
2022-07-25T00:30:19.303Z,64.43
2022-07-25T00:32:46.004Z,64.78
2022-07-25T00:35:13.869Z,64.99
2022-07-25T00:37:42.284Z,65.80
2022-07-25T00:40:09.736Z,66.57
2022-07-25T00:42:36.997Z,67.18
2022-07-25T00:45:05.954Z,67.50
2022-07-25T00:47:32.794Z,67.50
2022-07-25T00:50:01.357Z,67.42
2022-07-25T00:52:29.527Z,67.46
2022-07-25T00:54:57.690Z,67.67
2022-07-25T00:57:30.223Z,67.97
2022-07-25T01:00:00.484Z,68.14
2022-07-25T01:02:27.712Z,68.24
2022-07-25T01:04:55.063Z,68.71
2022-07-25T01:07:23.483Z,68.14
2022-07-25T01:09:53.173Z,68.23
2022-07-25T01:12:19.910Z,68.31
2022-07-25T01:14:46.528Z,68.93
2022-07-25T01:17:13.984Z,69.38
2022-07-25T01:19:41.025Z,68.92
2022-07-25T01:22:07.748Z,69.34
2022-07-25T01:24:36.039Z,69.74
2022-07-25T01:27:03.127Z,69.31
2022-07-25T01:29:29.865Z,69.21
2022-07-25T01:31:57.603Z,68.95
2022-07-25T01:34:24.353Z,68.90
2022-07-25T01:36:52.101Z,68.93
2022-07-25T01:39:18.787Z,69.40
2022-07-25T01:41:45.486Z,68.99
2022-07-25T01:44:12.707Z,68.98
2022-07-25T01:46:40.160Z,68.29
2022-07-25T01:49:08.906Z,68.18
2022-07-25T01:51:35.569Z,68.06
2022-07-25T01:54:03.953Z,68.21
2022-07-25T01:56:34.234Z,67.82
2022-07-25T01:59:00.973Z,67.63
2022-07-25T02:01:27.888Z,68.35
2022-07-25T02:03:54.585Z,68.42
2022-07-25T02:06:21.308Z,68.57
2022-07-25T02:08:47.982Z,69.05
2022-07-25T02:11:14.794Z,69.49
2022-07-25T02:13:41.848Z,69.72
2022-07-25T02:16:08.984Z,69.67
2022-07-25T02:18:36.045Z,69.77
2022-07-25T02:21:03.089Z,69.67
2022-07-25T02:23:29.875Z,70.07
2022-07-25T02:25:56.495Z,70.41
2022-07-25T02:28:24.466Z,70.16
2022-07-25T02:30:51.201Z,70.59
2022-07-25T02:33:18.242Z,70.75
2022-07-25T02:35:45.125Z,70.50
2022-07-25T02:38:19.857Z,70.67
2022-07-25T02:40:51.510Z,70.54
2022-07-25T02:43:20.093Z,71.30
2022-07-25T02:45:47.474Z,71.48
2022-07-25T02:48:14.374Z,72.07
2022-07-25T02:50:42.165Z,72.35
2022-07-25T02:53:09.071Z,72.71
2022-07-25T02:55:35.744Z,73.14
2022-07-25T02:58:02.692Z,73.17
2022-07-25T03:00:30.444Z,74.07
2022-07-25T03:02:58.737Z,74.40
2022-07-25T03:05:25.655Z,75.23
2022-07-25T03:07:53.054Z,75.67
2022-07-25T03:10:20.385Z,76.59
2022-07-25T03:12:48.115Z,76.37
2022-07-25T03:15:15.304Z,76.07
2022-07-25T03:17:42.524Z,75.82
2022-07-25T03:20:11.328Z,75.76
2022-07-25T03:22:38.101Z,75.68
2022-07-25T03:25:05.311Z,75.20
2022-07-25T03:27:33.822Z,75.82
2022-07-25T03:30:00.514Z,75.41
2022-07-25T03:32:27.576Z,74.99
2022-07-25T03:34:55.583Z,74.79
2022-07-25T03:37:22.248Z,74.21
2022-07-25T03:39:50.094Z,73.45
2022-07-25T03:42:16.886Z,73.03
2022-07-25T03:44:43.649Z,72.66
2022-07-25T03:47:20.256Z,72.31
2022-07-25T03:49:49.028Z,71.49
2022-07-25T03:52:17.305Z,70.78
2022-07-25T03:54:43.980Z,69.86
2022-07-25T03:57:12.722Z,67.68
2022-07-25T03:59:39.483Z,63.99
2022-07-25T04:02:06.293Z,60.93
2022-07-25T04:04:33.738Z,57.81
2022-07-25T04:07:00.395Z,55.12
2022-07-25T04:09:27.060Z,54.44
2022-07-25T04:11:59.307Z,51.01
2022-07-25T04:14:26.831Z,48.69
2022-07-25T04:16:58.603Z,45.19
2022-07-25T04:19:26.275Z,41.91
2022-07-25T04:21:55.629Z,39.32
2022-07-25T04:24:22.292Z,37.51
2022-07-25T04:26:49.084Z,36.36
2022-07-25T04:29:16.165Z,35.66
2022-07-25T04:31:43.035Z,34.93
2022-07-25T04:34:10.241Z,34.33
2022-07-25T04:36:37.053Z,33.72
2022-07-25T04:39:04.340Z,33.95
2022-07-25T04:41:31.079Z,33.13
2022-07-25T04:43:58.218Z,32.68
2022-07-25T04:46:24.864Z,32.40
2022-07-25T04:48:55.273Z,31.82
2022-07-25T04:51:23.591Z,31.22
2022-07-25T04:53:50.294Z,30.73
2022-07-25T04:56:17.306Z,29.72
2022-07-25T04:58:44.220Z,29.39
2022-07-25T05:01:10.934Z,29.56
2022-07-25T05:03:37.681Z,28.91
2022-07-25T05:06:04.523Z,28.50
2022-07-25T05:08:32.192Z,28.61
2022-07-25T05:10:58.909Z,28.13
2022-07-25T05:13:26.902Z,27.89
2022-07-25T05:15:53.908Z,27.91
2022-07-25T05:18:21.010Z,28.10
2022-07-25T05:20:48.087Z,27.51
2022-07-25T05:23:14.707Z,27.43
2022-07-25T05:25:42.586Z,27.00
2022-07-25T05:28:09.464Z,27.03
2022-07-25T05:30:40.111Z,27.26
2022-07-25T05:33:07.482Z,27.44
2022-07-25T05:35:34.784Z,27.11
2022-07-25T05:38:01.614Z,27.08
2022-07-25T05:40:28.483Z,27.05
2022-07-25T05:42:58.327Z,27.15
2022-07-25T05:45:29.184Z,26.97
2022-07-25T05:47:55.989Z,27.01
2022-07-25T05:50:22.837Z,27.27
2022-07-25T05:52:49.618Z,27.04
2022-07-25T05:55:18.220Z,26.32
2022-07-25T05:57:45.059Z,26.22
2022-07-25T06:00:13.171Z,25.95
2022-07-25T06:02:40.198Z,26.32
2022-07-25T06:05:07.275Z,25.92
2022-07-25T06:07:34.078Z,25.63
2022-07-25T06:10:00.934Z,25.53
2022-07-25T06:12:27.859Z,25.43
2022-07-25T06:14:54.538Z,25.63
2022-07-25T06:17:21.228Z,25.02
2022-07-25T06:19:48.148Z,25.69
2022-07-25T06:22:15.947Z,25.28
2022-07-25T06:24:42.660Z,25.47
2022-07-25T06:27:09.615Z,24.66
2022-07-25T06:29:38.010Z,24.73
2022-07-25T06:32:05.214Z,24.40
2022-07-25T06:34:31.880Z,24.80
2022-07-25T06:36:58.637Z,24.93
2022-07-25T06:39:26.354Z,24.98
2022-07-25T06:41:53.369Z,25.10
2022-07-25T06:44:20.103Z,25.44
2022-07-25T06:46:46.898Z,25.02
2022-07-25T06:49:13.927Z,25.38
2022-07-25T06:51:40.988Z,25.85
2022-07-25T06:54:08.174Z,25.96
2022-07-25T06:56:35.281Z,25.20
2022-07-25T06:59:02.321Z,25.79
2022-07-25T07:01:29.686Z,25.86
2022-07-25T07:03:56.649Z,26.22
2022-07-25T07:06:23.597Z,25.72
2022-07-25T07:09:10.725Z,25.05
2022-07-25T07:11:37.801Z,24.74
2022-07-25T07:14:05.007Z,24.81
2022-07-25T07:16:32.384Z,23.81
2022-07-25T07:18:59.147Z,24.80
2022-07-25T07:21:26.200Z,24.42
2022-07-25T07:23:53.759Z,24.44
2022-07-25T07:26:21.463Z,23.96
2022-07-25T07:28:48.579Z,23.90
2022-07-25T07:31:18.495Z,23.69
2022-07-25T07:33:46.110Z,23.42
2022-07-25T07:36:13.126Z,23.49
2022-07-25T07:38:40.211Z,23.91
2022-07-25T07:41:06.910Z,23.88
2022-07-25T07:43:33.939Z,25.02
2022-07-25T07:46:01.830Z,24.64
2022-07-25T07:48:29.858Z,24.54
2022-07-25T07:50:57.336Z,24.68
2022-07-25T07:53:44.262Z,24.31
2022-07-25T07:56:12.341Z,24.06
2022-07-25T07:58:39.236Z,23.80
2022-07-25T08:01:06.627Z,23.48
2022-07-25T08:03:33.806Z,23.18
2022-07-25T08:06:00.579Z,23.61
2022-07-25T08:08:31.157Z,24.29
2022-07-25T08:10:59.638Z,24.17
2022-07-25T08:13:30.557Z,24.67
2022-07-25T08:15:59.851Z,23.78
2022-07-25T08:18:30.060Z,24.74
2022-07-25T08:20:57.827Z,23.64
2022-07-25T08:23:27.940Z,24.54
2022-07-25T08:25:56.209Z,24.42
2022-07-25T08:28:23.091Z,24.49
2022-07-25T08:30:50.090Z,24.23
2022-07-25T08:33:18.812Z,23.78
2022-07-25T08:36:11.326Z,24.24
2022-07-25T08:38:38.080Z,23.84
2022-07-25T08:41:05.235Z,24.54
2022-07-25T08:43:33.225Z,25.00
2022-07-25T08:46:02.498Z,24.65
2022-07-25T08:48:29.944Z,24.41
2022-07-25T08:51:01.978Z,24.12
2022-07-25T08:53:33.585Z,24.17
2022-07-25T08:56:02.484Z,24.56
2022-07-25T08:58:31.080Z,24.66
2022-07-25T09:00:58.887Z,24.31
2022-07-25T09:03:26.852Z,24.98
2022-07-25T09:05:53.829Z,25.50
2022-07-25T09:08:22.139Z,25.73
2022-07-25T09:10:51.213Z,25.54
2022-07-25T09:13:19.560Z,25.21
2022-07-25T09:15:47.843Z,25.43
2022-07-25T09:18:19.527Z,25.66
2022-07-25T09:21:05.634Z,26.54
2022-07-25T09:23:39.865Z,27.10
2022-07-25T09:26:11.740Z,27.63
2022-07-25T09:28:57.061Z,28.03
2022-07-25T09:31:35.056Z,27.95
2022-07-25T09:34:03.535Z,28.21
2022-07-25T09:36:30.649Z,29.10
2022-07-25T09:39:05.580Z,28.56
2022-07-25T09:41:37.609Z,27.67
2022-07-25T09:44:15.220Z,27.09
2022-07-25T09:46:42.102Z,26.66
2022-07-25T09:49:09.895Z,26.88
2022-07-25T09:51:42.397Z,27.29
2022-07-25T09:54:09.665Z,27.86
2022-07-25T09:56:36.604Z,27.50
2022-07-25T09:59:05.420Z,27.51
2022-07-25T10:01:39.820Z,28.15
2022-07-25T10:04:37.886Z,27.41
2022-07-25T10:07:14.066Z,27.73
2022-07-25T10:09:51.780Z,28.18
2022-07-25T10:12:23.468Z,28.66
2022-07-25T10:15:13.503Z,28.79
2022-07-25T10:17:41.906Z,28.43
2022-07-25T10:20:10.889Z,27.68
2022-07-25T10:22:57.315Z,28.22
2022-07-25T10:25:24.834Z,27.79
2022-07-25T10:28:01.217Z,27.42
2022-07-25T10:30:39.108Z,28.25
2022-07-25T10:33:21.724Z,28.97
2022-07-25T10:35:48.452Z,29.31
2022-07-25T10:38:24.969Z,29.39
2022-07-25T10:40:51.835Z,28.69
2022-07-25T10:43:23.528Z,28.21
2022-07-25T10:45:59.750Z,27.78
2022-07-25T10:48:30.148Z,27.56
2022-07-25T10:51:02.375Z,27.88
2022-07-25T10:53:38.885Z,28.49
2022-07-25T10:56:10.689Z,28.13
2022-07-25T10:58:55.740Z,27.18
2022-07-25T11:01:26.104Z,26.02
2022-07-25T11:03:57.970Z,26.03
2022-07-25T11:06:41.485Z,26.60
2022-07-25T11:09:19.134Z,26.13
2022-07-25T11:11:50.343Z,26.20
2022-07-25T11:14:37.914Z,25.84
2022-07-25T11:17:12.924Z,25.69
2022-07-25T11:19:41.028Z,26.32
2022-07-25T11:22:08.837Z,26.83
2022-07-25T11:24:37.186Z,26.56
2022-07-25T11:27:09.841Z,26.57
2022-07-25T11:29:39.259Z,26.64
2022-07-25T11:32:11.265Z,26.41
2022-07-25T11:34:41.693Z,26.53
2022-07-25T11:37:10.847Z,26.24
2022-07-25T11:39:40.654Z,26.30
2022-07-25T11:42:13.145Z,26.15
2022-07-25T11:44:53.325Z,25.96
2022-07-25T11:47:31.877Z,26.35
2022-07-25T11:50:01.673Z,26.62
2022-07-25T11:52:33.168Z,26.76
2022-07-25T11:55:01.322Z,27.07
2022-07-25T11:57:34.300Z,27.39
2022-07-25T12:00:03.056Z,27.79
2022-07-25T12:02:32.338Z,27.93
2022-07-25T12:05:01.768Z,28.13
2022-07-25T12:07:39.429Z,27.91
2022-07-25T12:10:11.010Z,28.05
2022-07-25T12:12:43.475Z,27.89
2022-07-25T12:15:12.305Z,27.04
2022-07-25T12:17:39.027Z,27.43
2022-07-25T12:20:11.270Z,27.77
2022-07-25T12:22:38.098Z,27.76
2022-07-25T12:25:06.029Z,28.04
2022-07-25T12:27:32.760Z,28.07
2022-07-25T12:29:59.608Z,28.37
2022-07-25T12:32:26.299Z,28.44
2022-07-25T12:34:52.992Z,28.79
2022-07-25T12:37:21.736Z,28.06
2022-07-25T12:39:49.169Z,27.90
2022-07-25T12:42:16.159Z,27.79
2022-07-25T12:44:43.599Z,27.57
2022-07-25T12:47:10.767Z,27.00
2022-07-25T12:49:37.948Z,26.93
2022-07-25T12:52:04.983Z,26.93
2022-07-25T12:54:31.738Z,27.13
2022-07-25T12:56:58.770Z,27.12
2022-07-25T12:59:26.019Z,27.77
2022-07-25T13:01:53.472Z,28.10
2022-07-25T13:04:20.499Z,28.23
2022-07-25T13:06:47.598Z,28.07
2022-07-25T13:09:14.635Z,27.65
2022-07-25T13:11:42.589Z,27.20
2022-07-25T13:14:09.498Z,27.05
2022-07-25T13:16:38.139Z,27.03
2022-07-25T13:19:05.798Z,26.61
2022-07-25T13:21:32.807Z,26.58
2022-07-25T13:24:00.020Z,26.56
2022-07-25T13:26:27.014Z,26.40
2022-07-25T13:28:59.373Z,27.46
2022-07-25T13:31:26.914Z,27.14
2022-07-25T13:33:53.707Z,27.57
2022-07-25T13:36:20.918Z,28.01
2022-07-25T13:38:48.005Z,28.00
2022-07-25T13:41:14.875Z,27.94
2022-07-25T13:43:43.352Z,27.47
2022-07-25T13:46:11.219Z,27.53
2022-07-25T13:48:37.991Z,27.15
2022-07-25T13:51:05.108Z,27.42
2022-07-25T13:53:32.346Z,27.23
2022-07-25T13:56:00.316Z,26.78
2022-07-25T13:58:28.088Z,26.76
2022-07-25T14:00:55.384Z,27.02
2022-07-25T14:03:22.336Z,26.81
2022-07-25T14:05:49.161Z,26.73
2022-07-25T14:08:16.102Z,26.43
2022-07-25T14:10:42.807Z,26.43
2022-07-25T14:13:09.676Z,25.92
2022-07-25T14:15:38.449Z,26.28
2022-07-25T14:18:05.588Z,26.43
2022-07-25T14:20:33.489Z,26.33
2022-07-25T14:23:00.220Z,26.12
2022-07-25T14:25:27.434Z,26.08
2022-07-25T14:27:55.643Z,25.82
2022-07-25T14:30:22.624Z,25.49
2022-07-25T14:32:49.417Z,25.49
2022-07-25T14:35:16.160Z,25.51
2022-07-25T14:37:42.908Z,25.92
2022-07-25T14:40:11.822Z,25.46
2022-07-25T14:42:41.850Z,25.72
2022-07-25T14:45:09.233Z,25.88
2022-07-25T14:47:35.944Z,25.85
2022-07-25T14:50:03.075Z,25.50
2022-07-25T14:52:34.443Z,25.91
2022-07-25T14:55:04.825Z,25.99
2022-07-25T14:57:33.193Z,25.87
2022-07-25T15:00:02.322Z,25.99
2022-07-25T15:02:30.793Z,25.88
2022-07-25T15:04:57.591Z,25.86
2022-07-25T15:07:24.713Z,25.94
2022-07-25T15:09:51.913Z,26.75
2022-07-25T15:12:20.228Z,26.11
2022-07-25T15:14:47.072Z,26.08
2022-07-25T15:17:14.321Z,25.83
2022-07-25T15:19:41.344Z,25.53
2022-07-25T15:22:08.019Z,25.64
2022-07-25T15:24:50.218Z,25.30
2022-07-25T15:27:22.019Z,25.53
2022-07-25T15:29:48.745Z,25.60
2022-07-25T15:32:15.539Z,25.70
2022-07-25T15:34:42.216Z,25.54
2022-07-25T15:37:10.322Z,25.54
2022-07-25T15:39:37.016Z,25.52
2022-07-25T15:42:03.891Z,25.76
2022-07-25T15:44:32.693Z,25.98
2022-07-25T15:46:59.655Z,25.93
2022-07-25T15:49:28.067Z,25.76
2022-07-25T15:51:55.027Z,25.57
2022-07-25T15:54:25.078Z,25.90
2022-07-25T15:56:54.480Z,26.17
2022-07-25T15:59:22.978Z,26.05
2022-07-25T16:01:49.744Z,27.24
2022-07-25T16:04:16.947Z,28.93
2022-07-25T16:06:44.244Z,28.93
2022-07-25T16:09:12.714Z,29.57
2022-07-25T16:11:39.543Z,29.68
2022-07-25T16:14:06.256Z,29.55
2022-07-25T16:16:33.236Z,30.04
2022-07-25T16:19:00.176Z,30.02
2022-07-25T16:21:27.412Z,30.36
2022-07-25T16:23:54.179Z,30.59
2022-07-25T16:26:20.888Z,30.79
2022-07-25T16:28:47.870Z,30.95
2022-07-25T16:31:14.807Z,30.76
2022-07-25T16:33:41.846Z,31.13
2022-07-25T16:36:10.996Z,31.31
2022-07-25T16:38:37.792Z,31.66
2022-07-25T16:41:04.802Z,31.84
2022-07-25T16:43:31.691Z,31.83
2022-07-25T16:45:58.419Z,31.71
2022-07-25T16:48:25.337Z,32.14
2022-07-25T16:50:52.472Z,32.57
2022-07-25T16:53:20.815Z,32.54
2022-07-25T16:55:47.498Z,32.52
2022-07-25T16:58:14.218Z,32.98
2022-07-25T17:00:41.045Z,33.18
2022-07-25T17:03:07.952Z,33.27
2022-07-25T17:05:35.229Z,33.54
2022-07-25T17:08:02.111Z,33.81
2022-07-25T17:10:28.857Z,33.99
2022-07-25T17:12:56.006Z,34.30
2022-07-25T17:15:22.809Z,34.39
2022-07-25T17:17:49.467Z,34.43
2022-07-25T17:20:16.226Z,34.83
2022-07-25T17:22:42.844Z,34.77
2022-07-25T17:25:10.315Z,34.98
2022-07-25T17:27:37.341Z,35.19
2022-07-25T17:30:05.093Z,35.18
2022-07-25T17:32:31.753Z,35.44
2022-07-25T17:34:58.870Z,35.66
2022-07-25T17:37:27.748Z,35.80
2022-07-25T17:39:54.740Z,35.71
2022-07-25T17:42:22.477Z,36.06
2022-07-25T17:44:51.016Z,36.09
2022-07-25T17:47:18.399Z,36.23
2022-07-25T17:49:45.395Z,36.45
2022-07-25T17:52:16.071Z,36.40
2022-07-25T17:54:42.844Z,36.57
2022-07-25T17:57:10.303Z,36.83
2022-07-25T17:59:37.463Z,37.01
2022-07-25T18:02:04.411Z,37.08
2022-07-25T18:04:31.342Z,37.38
2022-07-25T18:06:58.496Z,37.65
2022-07-25T18:09:25.415Z,37.76
2022-07-25T18:11:52.262Z,37.94
2022-07-25T18:14:18.900Z,37.94
2022-07-25T18:16:45.660Z,38.09
2022-07-25T18:19:13.249Z,38.40
2022-07-25T18:21:39.985Z,38.68
2022-07-25T18:24:07.333Z,38.87
2022-07-25T18:26:35.154Z,38.72
2022-07-25T18:29:01.860Z,39.19
2022-07-25T18:31:28.655Z,39.35
2022-07-25T18:33:55.553Z,39.61
2022-07-25T18:36:22.287Z,39.58
2022-07-25T18:38:49.170Z,39.91
2022-07-25T18:41:34.488Z,40.05
2022-07-25T18:44:01.334Z,40.29
2022-07-25T18:46:30.246Z,40.43
2022-07-25T18:48:57.959Z,40.54
2022-07-25T18:51:24.769Z,40.59
2022-07-25T18:53:51.483Z,41.36
2022-07-25T18:56:18.163Z,41.38
2022-07-25T18:58:45.330Z,41.45
2022-07-25T19:01:12.570Z,41.38
2022-07-25T19:03:40.549Z,41.48
2022-07-25T19:06:08.875Z,41.90
2022-07-25T19:08:36.255Z,41.93
2022-07-25T19:11:03.110Z,42.44
2022-07-25T19:13:49.010Z,42.55
2022-07-25T19:16:17.011Z,42.47
2022-07-25T19:18:43.806Z,42.67
2022-07-25T19:21:10.435Z,42.44
2022-07-25T19:23:37.368Z,42.62
2022-07-25T19:26:04.551Z,43.07
2022-07-25T19:28:31.898Z,43.31
2022-07-25T19:30:58.959Z,43.45
2022-07-25T19:33:25.802Z,43.59
2022-07-25T19:36:01.656Z,43.39
2022-07-25T19:38:28.450Z,43.78
2022-07-25T19:40:55.196Z,44.02
2022-07-25T19:43:22.090Z,44.28
2022-07-25T19:45:48.980Z,44.39
2022-07-25T19:48:15.843Z,45.06
2022-07-25T19:50:42.644Z,45.77
2022-07-25T19:53:09.291Z,45.85
2022-07-25T19:55:36.066Z,45.81
2022-07-25T19:58:03.144Z,45.99
2022-07-25T20:00:29.772Z,46.50
2022-07-25T20:02:56.525Z,46.68
2022-07-25T20:05:23.601Z,47.34
2022-07-25T20:07:51.369Z,48.03
2022-07-25T20:10:18.571Z,48.62
2022-07-25T20:12:45.773Z,48.61
2022-07-25T20:15:12.912Z,48.88
2022-07-25T20:17:40.250Z,49.55
2022-07-25T20:20:07.989Z,49.78
2022-07-25T20:22:37.656Z,50.12
2022-07-25T20:25:09.559Z,50.13
2022-07-25T20:27:37.120Z,50.96
2022-07-25T20:30:07.518Z,50.79
2022-07-25T20:32:35.124Z,50.87
2022-07-25T20:35:02.905Z,51.56
2022-07-25T20:37:29.700Z,52.00
2022-07-25T20:39:56.740Z,52.05
2022-07-25T20:42:23.677Z,52.70
2022-07-25T20:44:50.807Z,52.64
2022-07-25T20:47:17.787Z,52.93
2022-07-25T20:49:44.707Z,53.27
2022-07-25T20:52:11.408Z,53.76
2022-07-25T20:54:39.325Z,53.91
2022-07-25T20:57:06.043Z,54.38
2022-07-25T20:59:32.941Z,54.66
2022-07-25T21:02:37.411Z,54.53
2022-07-25T21:05:04.549Z,54.88
2022-07-25T21:07:31.247Z,55.44
2022-07-25T21:09:57.949Z,55.24
2022-07-25T21:12:25.505Z,55.64
2022-07-25T21:14:54.628Z,55.60
2022-07-25T21:17:21.271Z,55.89
2022-07-25T21:19:48.135Z,55.75
2022-07-25T21:22:14.846Z,56.00
2022-07-25T21:24:41.880Z,56.41
2022-07-25T21:27:09.328Z,56.43
2022-07-25T21:29:36.163Z,56.97
2022-07-25T21:32:04.480Z,56.96
2022-07-25T21:34:31.290Z,56.61
2022-07-25T21:36:58.144Z,57.49
2022-07-25T21:39:25.293Z,56.96
2022-07-25T21:41:55.564Z,57.05
2022-07-25T21:44:22.679Z,57.01
2022-07-25T21:46:50.676Z,57.03
2022-07-25T21:49:41.568Z,57.46
2022-07-25T21:52:13.991Z,58.46
2022-07-25T21:54:42.097Z,59.11
2022-07-25T21:57:13.793Z,59.85
2022-07-25T21:59:44.236Z,60.71
2022-07-25T22:02:11.461Z,60.16
2022-07-25T22:04:38.692Z,60.54
2022-07-25T22:07:05.789Z,60.72
2022-07-25T22:09:32.439Z,60.92
2022-07-25T22:11:59.106Z,61.14
2022-07-25T22:14:25.969Z,61.47
2022-07-25T22:16:52.693Z,61.31
2022-07-25T22:19:22.321Z,61.14
2022-07-25T22:21:49.605Z,60.69
2022-07-25T22:24:16.492Z,60.55
2022-07-25T22:26:43.631Z,61.04
2022-07-25T22:29:10.980Z,61.90
2022-07-25T22:31:40.934Z,62.34
2022-07-25T22:34:08.635Z,63.00
2022-07-25T22:36:35.480Z,63.70
2022-07-25T22:39:02.123Z,63.95
2022-07-25T22:41:28.851Z,63.92
2022-07-25T22:43:58.419Z,65.10
2022-07-25T22:46:29.756Z,64.39
2022-07-25T22:48:57.613Z,64.14
2022-07-25T22:51:25.080Z,64.19
2022-07-25T22:53:51.943Z,63.99
2022-07-25T22:56:19.023Z,63.77
2022-07-25T22:58:46.711Z,63.51
2022-07-25T23:01:18.352Z,63.68
2022-07-25T23:03:46.259Z,63.65
2022-07-25T23:06:13.088Z,63.82
2022-07-25T23:08:39.786Z,63.65
2022-07-25T23:11:06.625Z,64.12
2022-07-25T23:13:34.838Z,64.32
2022-07-25T23:16:03.255Z,64.31
2022-07-25T23:18:30.566Z,64.68
2022-07-25T23:20:57.319Z,64.84
2022-07-25T23:23:23.947Z,64.75
2022-07-25T23:25:50.641Z,65.12
2022-07-25T23:28:17.310Z,65.01
2022-07-25T23:30:44.177Z,65.93
2022-07-25T23:33:10.750Z,66.26
2022-07-25T23:35:38.007Z,66.63
2022-07-25T23:38:04.888Z,66.99
2022-07-25T23:40:31.933Z,68.04
2022-07-25T23:42:58.619Z,68.47
2022-07-25T23:45:28.027Z,68.80
2022-07-25T23:47:55.939Z,69.69
2022-07-25T23:50:23.394Z,70.29
2022-07-25T23:52:51.013Z,71.32
2022-07-25T23:55:17.719Z,72.66
2022-07-25T23:57:44.449Z,73.05
